createdAt,value
2019-02-27T00:00:02.068Z,98312.27
2019-02-27T00:04:56.640Z,98311.92
2019-02-27T00:09:51.237Z,98305.66
2019-02-27T00:14:45.817Z,98306.48
2019-02-27T00:19:40.477Z,98315.38
2019-02-27T00:24:35.059Z,98310.50
2019-02-27T00:29:29.681Z,98294.92
2019-02-27T00:34:24.278Z,98307.19
2019-02-27T00:39:18.879Z,98306.11
2019-02-27T00:44:13.451Z,98299.47
2019-02-27T00:49:08.042Z,98293.13
2019-02-27T00:54:02.624Z,98306.27
2019-02-27T00:58:59.953Z,98302.16
2019-02-27T01:03:53.564Z,98296.13
2019-02-27T01:08:48.171Z,98285.03
2019-02-27T01:13:42.776Z,98289.91
2019-02-27T01:18:37.386Z,98287.13
2019-02-27T01:23:31.964Z,98290.72
2019-02-27T01:28:26.637Z,98280.77
2019-02-27T01:33:21.315Z,98268.25
2019-02-27T01:38:15.907Z,98268.22
2019-02-27T01:43:10.488Z,98253.77
2019-02-27T01:48:08.930Z,98251.66
2019-02-27T01:53:01.534Z,98251.44
2019-02-27T01:57:56.214Z,98254.27
2019-02-27T02:02:50.862Z,98249.28
2019-02-27T02:07:49.669Z,98243.70
2019-02-27T02:12:45.972Z,98235.13
2019-02-27T02:17:59.916Z,98230.89
2019-02-27T02:23:01.699Z,98232.91
2019-02-27T02:28:15.844Z,98218.65
2019-02-27T02:33:28.641Z,98217.74
2019-02-27T02:38:45.508Z,98212.02
2019-02-27T02:44:07.209Z,98200.84
2019-02-27T02:49:43.800Z,98206.61
2019-02-27T02:54:57.940Z,98203.03
2019-02-27T03:00:02.275Z,98199.53
2019-02-27T03:05:24.446Z,98200.29
2019-02-27T03:10:45.807Z,98204.97
2019-02-27T03:16:04.063Z,98198.98
2019-02-27T03:21:12.562Z,98196.64
2019-02-27T03:26:23.415Z,98184.86
2019-02-27T03:31:37.288Z,98191.75
2019-02-27T03:37:00.078Z,98187.50
2019-02-27T03:42:24.840Z,98194.19
2019-02-27T03:47:26.832Z,98185.45
2019-02-27T03:52:53.925Z,98190.69
2019-02-27T03:57:58.811Z,98178.63
2019-02-27T04:03:22.208Z,98174.31
2019-02-27T04:08:55.834Z,98187.26
2019-02-27T04:13:50.405Z,98180.17
2019-02-27T04:18:45.017Z,98176.58
2019-02-27T04:23:39.601Z,98177.83
2019-02-27T04:28:34.215Z,98168.77
2019-02-27T04:33:28.870Z,98166.30
2019-02-27T04:38:25.063Z,98162.16
2019-02-27T04:43:19.745Z,98167.36
2019-02-27T04:48:14.312Z,98163.67
2019-02-27T04:53:08.975Z,98171.29
2019-02-27T04:58:03.591Z,98164.06
2019-02-27T05:02:58.187Z,98164.27
2019-02-27T05:07:54.322Z,98154.01
2019-02-27T05:12:49.132Z,98151.80
2019-02-27T05:17:43.739Z,98154.92
2019-02-27T05:22:38.346Z,98146.12
2019-02-27T05:27:32.954Z,98153.84
2019-02-27T05:32:28.281Z,98152.73
2019-02-27T05:37:23.405Z,98161.03
2019-02-27T05:42:18.012Z,98151.81
2019-02-27T05:47:12.604Z,98152.33
2019-02-27T05:52:07.195Z,98159.36
2019-02-27T05:57:01.795Z,98164.16
2019-02-27T06:01:56.408Z,98160.55
2019-02-27T06:06:51.048Z,98164.58
2019-02-27T06:11:45.647Z,98166.08
2019-02-27T06:16:40.907Z,98168.38
2019-02-27T06:21:35.618Z,98165.59
2019-02-27T06:26:32.391Z,98160.14
2019-02-27T06:31:26.548Z,98162.61
2019-02-27T06:36:21.153Z,98165.45
2019-02-27T06:41:16.302Z,98158.34
2019-02-27T06:46:11.115Z,98164.28
2019-02-27T06:51:08.608Z,98165.63
2019-02-27T06:56:04.019Z,98165.70
2019-02-27T07:00:58.930Z,98169.87
2019-02-27T07:05:53.537Z,98174.13
2019-02-27T07:10:48.124Z,98169.22
2019-02-27T07:15:47.770Z,98166.42
2019-02-27T07:20:39.266Z,98166.33
2019-02-27T07:25:33.855Z,98158.45
2019-02-27T07:30:28.522Z,98154.89
2019-02-27T07:35:25.588Z,98153.38
2019-02-27T07:40:20.955Z,98139.38
2019-02-27T07:45:22.957Z,98142.70
2019-02-27T07:50:22.444Z,98135.37
2019-02-27T07:55:22.741Z,98138.64
2019-02-27T08:00:22.856Z,98127.77
2019-02-27T08:05:17.649Z,98120.98
2019-02-27T08:10:22.448Z,98116.00
2019-02-27T08:15:20.129Z,98111.45
2019-02-27T08:20:20.137Z,98111.11
2019-02-27T08:25:16.433Z,98108.50
2019-02-27T08:30:18.342Z,98101.80
2019-02-27T08:35:13.065Z,98105.34
2019-02-27T08:40:12.047Z,98091.77
2019-02-27T08:45:19.211Z,98098.06
2019-02-27T08:50:14.230Z,98091.39
2019-02-27T08:55:19.906Z,98098.61
2019-02-27T09:00:24.084Z,98094.77
2019-02-27T09:05:22.081Z,98088.73
2019-02-27T09:10:20.076Z,98073.91
2019-02-27T09:15:18.389Z,98081.91
2019-02-27T09:20:21.066Z,98076.55
2019-02-27T09:25:16.532Z,98063.95
2019-02-27T09:30:17.697Z,98063.37
2019-02-27T09:35:17.111Z,98060.09
2019-02-27T09:40:29.837Z,98053.09
2019-02-27T09:45:30.771Z,98045.24
2019-02-27T09:50:41.743Z,98040.53
2019-02-27T09:55:37.959Z,98024.99
2019-02-27T10:00:42.974Z,98016.55
2019-02-27T10:05:40.719Z,98004.23
2019-02-27T10:10:35.038Z,97998.69
2019-02-27T10:15:29.800Z,97991.80
2019-02-27T10:20:30.316Z,97991.30
2019-02-27T10:25:30.564Z,97985.67
2019-02-27T10:30:25.845Z,97975.86
2019-02-27T10:35:20.639Z,97969.12
2019-02-27T10:40:28.629Z,97968.88
2019-02-27T10:45:23.460Z,97964.53
2019-02-27T10:50:19.108Z,97955.60
2019-02-27T10:55:22.499Z,97945.83
2019-02-27T11:00:27.481Z,97947.05
2019-02-27T11:05:22.522Z,97938.07
2019-02-27T11:10:17.908Z,97924.91
2019-02-27T11:15:19.077Z,97926.02
2019-02-27T11:20:20.238Z,97923.91
2019-02-27T11:25:22.270Z,97922.00
2019-02-27T11:30:21.653Z,97907.31
2019-02-27T11:35:16.432Z,97906.59
2019-02-27T11:40:25.441Z,97900.12
2019-02-27T11:45:23.478Z,97897.19
2019-02-27T11:50:19.422Z,97874.55
2019-02-27T11:55:16.839Z,97864.80
2019-02-27T12:00:17.941Z,97847.20
2019-02-27T12:05:19.340Z,97837.55
2019-02-27T12:10:27.228Z,97823.46
2019-02-27T12:15:22.819Z,97825.68
2019-02-27T12:20:29.579Z,97818.57
2019-02-27T12:25:32.334Z,97804.38
2019-02-27T12:30:38.521Z,97793.13
2019-02-27T12:35:37.614Z,97773.72
2019-02-27T12:40:32.341Z,97764.00
2019-02-27T12:45:30.680Z,97745.80
2019-02-27T12:50:31.071Z,97738.99
2019-02-27T12:55:24.907Z,97731.61
2019-02-27T13:00:23.582Z,97725.27
2019-02-27T13:05:20.404Z,97717.19
2019-02-27T13:10:20.537Z,97717.41
2019-02-27T13:15:22.617Z,97716.41
2019-02-27T13:20:23.569Z,97711.71
2019-02-27T13:25:18.529Z,97706.86
2019-02-27T13:30:24.592Z,97702.48
2019-02-27T13:35:20.190Z,97696.16
2019-02-27T13:40:19.107Z,97689.42
2019-02-27T13:45:17.910Z,97675.64
2019-02-27T13:50:14.064Z,97674.33
2019-02-27T13:55:13.327Z,97670.98
2019-02-27T14:00:37.214Z,97662.16
2019-02-27T14:05:36.080Z,97652.87
2019-02-27T14:10:36.612Z,97654.05
2019-02-27T14:15:32.747Z,97641.14
2019-02-27T14:20:28.953Z,97634.17
2019-02-27T14:25:34.124Z,97632.73
2019-02-27T14:30:49.944Z,97630.95
2019-02-27T14:35:45.224Z,97629.83
2019-02-27T14:40:41.155Z,97624.89
2019-02-27T14:45:40.709Z,97621.30
2019-02-27T14:50:35.787Z,97618.21
2019-02-27T14:55:30.405Z,97608.45
2019-02-27T15:00:39.813Z,97605.14
2019-02-27T15:05:31.395Z,97608.25
2019-02-27T15:10:27.221Z,97596.75
2019-02-27T15:15:27.538Z,97597.59
2019-02-27T15:20:25.454Z,97596.03
2019-02-27T15:25:20.490Z,97586.13
2019-02-27T15:30:30.324Z,97591.91
2019-02-27T15:35:25.011Z,97595.02
2019-02-27T15:40:30.280Z,97584.91
2019-02-27T15:45:33.282Z,97580.58
2019-02-27T15:50:36.763Z,97577.31
2019-02-27T15:55:34.273Z,97568.51
2019-02-27T16:00:35.914Z,97567.92
2019-02-27T16:05:31.738Z,97572.06
2019-02-27T16:10:30.111Z,97570.45
2019-02-27T16:15:26.295Z,97575.94
2019-02-27T16:20:23.504Z,97579.82
2019-02-27T16:25:25.274Z,97570.92
2019-02-27T16:30:32.986Z,97569.22
2019-02-27T16:35:27.937Z,97565.48
2019-02-27T16:40:24.928Z,97564.70
2019-02-27T16:45:36.843Z,97561.48
2019-02-27T16:50:31.172Z,97566.30
2019-02-27T16:55:27.506Z,97572.20
2019-02-27T17:00:38.192Z,97569.97
2019-02-27T17:05:32.812Z,97571.40
2019-02-27T17:10:34.731Z,97576.06
2019-02-27T17:15:34.566Z,97568.84
2019-02-27T17:20:29.693Z,97571.89
2019-02-27T17:25:28.813Z,97561.98
2019-02-27T17:30:36.589Z,97561.28
2019-02-27T17:35:29.569Z,97569.50
2019-02-27T17:40:24.248Z,97570.77
2019-02-27T17:45:23.743Z,97578.02
2019-02-27T17:50:18.882Z,97581.41
2019-02-27T17:55:18.531Z,97585.27
2019-02-27T18:00:28.369Z,97593.81
2019-02-27T18:05:25.522Z,97588.18
2019-02-27T18:10:19.642Z,97580.47
2019-02-27T18:15:22.368Z,97578.42
2019-02-27T18:20:17.276Z,97576.36
2019-02-27T18:25:15.626Z,97570.44
2019-02-27T18:30:21.681Z,97583.27
2019-02-27T18:35:17.801Z,97575.74
2019-02-27T18:40:17.848Z,97577.06
2019-02-27T18:45:16.338Z,97573.44
2019-02-27T18:50:14.346Z,97572.88
2019-02-27T18:55:12.481Z,97576.36
2019-02-27T19:00:24.984Z,97569.78
2019-02-27T19:05:19.641Z,97570.63
2019-02-27T19:10:16.640Z,97560.59
2019-02-27T19:15:23.727Z,97557.75
2019-02-27T19:20:28.242Z,97552.37
2019-02-27T19:25:23.048Z,97555.88
2019-02-27T19:30:19.673Z,97549.69
2019-02-27T19:35:14.681Z,97539.28
2019-02-27T19:40:19.589Z,97527.34
2019-02-27T19:45:14.336Z,97526.82
2019-02-27T19:50:11.177Z,97523.47
2019-02-27T19:55:08.824Z,97525.56
2019-02-27T20:00:04.379Z,97523.97
2019-02-27T20:04:58.980Z,97521.08
2019-02-27T20:09:54.344Z,97527.11
2019-02-27T20:14:50.001Z,97526.16
2019-02-27T20:19:44.578Z,97530.12
2019-02-27T20:24:39.173Z,97532.38
2019-02-27T20:29:39.446Z,97527.04
2019-02-27T20:34:30.157Z,97526.97
2019-02-27T20:39:24.909Z,97526.17
2019-02-27T20:44:19.487Z,97542.82
2019-02-27T20:49:14.199Z,97543.68
2019-02-27T20:54:08.934Z,97541.77
2019-02-27T20:59:03.518Z,97548.88
2019-02-27T21:04:01.476Z,97543.12
2019-02-27T21:08:54.436Z,97548.89
2019-02-27T21:13:49.635Z,97537.13
2019-02-27T21:18:44.777Z,97538.52
2019-02-27T21:23:39.436Z,97529.27
2019-02-27T21:28:34.131Z,97532.19
2019-02-27T21:33:28.747Z,97527.16
2019-02-27T21:38:23.347Z,97528.59
2019-02-27T21:43:17.921Z,97524.69
2019-02-27T21:48:12.515Z,97521.52
2019-02-27T21:53:07.121Z,97514.24
2019-02-27T21:58:01.846Z,97513.38
2019-02-27T22:03:03.893Z,97523.81
2019-02-27T22:07:55.148Z,97529.22
2019-02-27T22:12:49.821Z,97521.71
2019-02-27T22:17:44.476Z,97528.03
2019-02-27T22:22:41.502Z,97529.98
2019-02-27T22:27:35.626Z,97525.99
2019-02-27T22:32:30.218Z,97529.31
2019-02-27T22:37:24.813Z,97524.03
2019-02-27T22:42:19.487Z,97527.84
2019-02-27T22:47:14.169Z,97527.26
2019-02-27T22:52:08.754Z,97523.87
2019-02-27T22:57:03.345Z,97526.14
2019-02-27T23:01:58.199Z,97521.67
2019-02-27T23:06:52.868Z,97524.97
2019-02-27T23:11:47.620Z,97526.41
2019-02-27T23:16:42.389Z,97529.80
2019-02-27T23:21:37.184Z,97535.41
2019-02-27T23:26:31.815Z,97524.39
2019-02-27T23:31:26.408Z,97529.08
2019-02-27T23:36:22.035Z,97524.42
2019-02-27T23:41:22.765Z,97524.48
2019-02-27T23:46:15.603Z,97520.62
2019-02-27T23:51:10.078Z,97516.41
2019-02-27T23:56:05.790Z,97512.58
